Time;durP1;ratioP1;P1;durP2;ratioP2;P2;SDS_P1;SDS_P2;PMS_P1;PMS_P2;Temp;Humidity;BMP_temperature;BMP_pressure;BME280_temperature;BME280_humidity;BME280_pressure;Samples;Min_cycle;Max_cycle;Signal;HPM_P1;HPM_P2
2021/05/16 00:01:10;;;;;;;13.00;8.95;;;;;;;13.79;86.40;99360.53;5074006;28;20098;-75
2021/05/16 00:03:40;;;;;;;11.48;8.48;;;;;;;13.82;86.51;99356.75;5074302;28;20094;-73
2021/05/16 00:06:10;;;;;;;10.00;8.15;;;;;;;13.82;86.08;99356.75;5073843;28;20136;-73
2021/05/16 00:08:37;;;;;;;13.00;8.82;;;;;;;13.81;86.49;99360.41;5074433;28;20049;-74
2021/05/16 00:11:05;;;;;;;10.75;8.18;;;;;;;13.81;86.39;99361.25;5074064;28;20041;-74
2021/05/16 00:13:33;;;;;;;10.73;8.45;;;;;;;13.88;86.28;99361.56;5074103;28;20036;-74
2021/05/16 00:16:02;;;;;;;11.77;8.55;;;;;;;13.79;86.18;99340.91;5073764;28;20040;-73
2021/05/16 00:18:29;;;;;;;10.18;7.82;;;;;;;13.83;86.27;99353.94;5074194;28;20044;-73
2021/05/16 00:20:58;;;;;;;13.05;8.52;;;;;;;13.82;86.33;99351.41;5073888;28;20469;-73
2021/05/16 00:23:26;;;;;;;11.27;8.38;;;;;;;13.84;86.16;99361.00;5072160;28;20064;-73
2021/05/16 00:25:54;;;;;;;12.23;8.77;;;;;;;13.85;86.21;99356.47;5073919;28;20048;-79
2021/05/16 00:28:22;;;;;;;10.75;8.43;;;;;;;13.82;86.28;99354.91;5073913;28;20131;-73
2021/05/16 00:30:51;;;;;;;13.18;8.75;;;;;;;13.79;86.71;99348.97;5073974;28;20048;-73
2021/05/16 00:33:19;;;;;;;11.27;8.88;;;;;;;13.65;87.00;99343.00;5073379;28;20041;-73
2021/05/16 00:35:50;;;;;;;10.43;8.55;;;;;;;13.69;87.22;99341.72;5074032;28;20044;-73
2021/05/16 00:38:18;;;;;;;12.65;9.23;;;;;;;13.64;87.49;99335.09;5073288;28;20072;-73
2021/05/16 00:40:46;;;;;;;11.85;9.40;;;;;;;13.70;86.99;99338.09;5073790;28;20098;-73
2021/05/16 00:43:14;;;;;;;15.40;10.02;;;;;;;13.69;87.39;99336.38;5073569;28;20041;-74
2021/05/16 00:45:46;;;;;;;11.80;9.27;;;;;;;13.67;87.69;99338.34;5073536;28;20442;-74
2021/05/16 00:48:16;;;;;;;10.50;8.45;;;;;;;13.65;87.74;99334.94;5073350;28;20094;-76
2021/05/16 00:50:47;;;;;;;12.60;9.07;;;;;;;13.63;87.74;99331.56;5073776;28;20111;-74
2021/05/16 00:53:20;;;;;;;12.23;9.40;;;;;;;13.59;87.99;99337.31;5072128;28;20147;-74
2021/05/16 00:55:50;;;;;;;11.23;9.30;;;;;;;13.55;87.92;99334.06;5073717;28;20127;-73
2021/05/16 00:58:19;;;;;;;15.68;11.00;;;;;;;13.60;88.03;99339.00;5073101;28;20047;-75
2021/05/16 01:00:47;;;;;;;13.57;10.90;;;;;;;13.64;87.97;99338.63;5073603;28;20045;-75
2021/05/16 01:03:14;;;;;;;12.35;9.75;;;;;;;13.55;88.17;99339.41;5073028;28;20064;-75
2021/05/16 01:05:44;;;;;;;12.85;9.75;;;;;;;13.45;88.78;99333.16;5072136;28;20049;-74
2021/05/16 01:08:14;;;;;;;13.85;10.80;;;;;;;13.39;89.18;99334.53;5075057;28;20367;-73
2021/05/16 01:10:44;;;;;;;14.00;11.10;;;;;;;13.42;89.63;99333.44;5073984;28;20535;-75
2021/05/16 01:13:13;;;;;;;14.80;11.48;;;;;;;13.33;89.77;99331.53;5073125;28;20442;-74
2021/05/16 01:15:43;;;;;;;16.33;12.35;;;;;;;13.30;90.15;99329.09;5073377;28;20048;-76
2021/05/16 01:18:12;;;;;;;14.75;10.57;;;;;;;13.07;89.83;99286.38;5073052;28;20041;-76
2021/05/16 01:20:43;;;;;;;14.95;12.00;;;;;;;13.09;89.58;99284.41;5073537;28;20393;-75
2021/05/16 01:23:15;;;;;;;14.63;11.40;;;;;;;13.19;89.54;99303.25;5072580;28;20040;-76
2021/05/16 01:25:48;;;;;;;16.70;12.52;;;;;;;13.44;89.39;99332.31;5073357;28;20045;-74
2021/05/16 01:28:19;;;;;;;15.15;12.05;;;;;;;13.35;89.79;99333.09;5071636;28;20059;-75
2021/05/16 01:30:49;;;;;;;14.65;11.77;;;;;;;13.29;90.24;99322.91;5072918;28;20489;-70
2021/05/16 01:33:18;;;;;;;17.20;13.00;;;;;;;13.29;90.49;99317.53;5072650;28;20098;-70
2021/05/16 01:35:46;;;;;;;16.83;12.43;;;;;;;13.25;90.60;99321.47;5072742;28;20044;-68
2021/05/16 01:38:17;;;;;;;17.10;12.10;;;;;;;13.24;90.85;99313.59;5072486;28;20045;-69
2021/05/16 01:40:46;;;;;;;15.27;11.80;;;;;;;13.34;90.14;99317.16;5073058;28;20047;-69
2021/05/16 01:43:15;;;;;;;17.10;11.85;;;;;;;13.42;89.59;99306.66;5072306;28;20040;-71
2021/05/16 01:45:44;;;;;;;16.20;12.02;;;;;;;13.48;88.99;99308.78;5072786;28;20075;-70
2021/05/16 01:48:12;;;;;;;15.20;11.98;;;;;;;13.42;89.05;99301.28;5072320;28;20040;-72
2021/05/16 01:50:41;;;;;;;15.52;12.55;;;;;;;13.45;88.89;99307.22;5072662;28;20109;-72
2021/05/16 01:53:10;;;;;;;17.55;12.88;;;;;;;13.24;90.03;99289.47;5072611;28;20036;-73
2021/05/16 01:55:39;;;;;;;15.40;12.10;;;;;;;13.26;90.29;99292.88;5072759;28;20052;-71
2021/05/16 01:58:09;;;;;;;16.10;12.38;;;;;;;13.33;90.07;99296.72;5072713;28;20435;-72
2021/05/16 02:00:39;;;;;;;15.27;11.73;;;;;;;13.37;89.64;99290.09;5072622;28;20102;-72
2021/05/16 02:03:07;;;;;;;17.00;12.55;;;;;;;13.24;90.43;99289.47;5071328;28;20053;-73
2021/05/16 02:05:37;;;;;;;16.50;12.38;;;;;;;13.24;90.37;99287.66;5072787;28;20443;-73
2021/05/16 02:08:06;;;;;;;17.58;13.50;;;;;;;13.12;91.16;99296.69;5072538;28;20469;-73
2021/05/16 02:10:34;;;;;;;14.70;12.48;;;;;;;13.06;91.53;99290.06;5072862;28;20041;-73
2021/05/16 02:13:03;;;;;;;16.60;13.52;;;;;;;13.05;91.59;99293.72;5072843;28;20436;-76
2021/05/16 02:15:31;;;;;;;15.90;12.52;;;;;;;13.05;91.83;99290.19;5072875;28;20048;-73
2021/05/16 02:18:00;;;;;;;15.30;12.38;;;;;;;13.00;91.93;99285.22;5072461;28;20473;-74
2021/05/16 02:20:29;;;;;;;16.30;12.75;;;;;;;12.89;92.29;99282.59;5072663;28;20079;-74
2021/05/16 02:22:57;;;;;;;17.40;12.60;;;;;;;12.89;92.73;99290.63;5072315;28;20045;-74
2021/05/16 02:25:26;;;;;;;17.98;12.48;;;;;;;13.02;92.26;99288.59;5072080;28;20119;-73
2021/05/16 02:27:57;;;;;;;17.85;12.90;;;;;;;12.95;92.38;99275.88;5072382;28;20040;-73
2021/05/16 02:30:25;;;;;;;15.32;12.77;;;;;;;13.03;92.26;99284.97;5071993;28;20520;-73
2021/05/16 02:32:53;;;;;;;15.45;12.15;;;;;;;13.13;91.28;99279.66;5072239;28;20481;-73
2021/05/16 02:35:21;;;;;;;16.40;12.95;;;;;;;13.03;92.00;99279.63;5072028;28;20493;-73
2021/05/16 02:37:49;;;;;;;16.23;12.65;;;;;;;12.98;92.40;99283.66;5072166;28;20049;-72
2021/05/16 02:40:18;;;;;;;15.70;12.80;;;;;;;12.97;92.16;99273.94;5071745;28;20125;-72
2021/05/16 02:42:46;;;;;;;17.90;13.40;;;;;;;13.03;92.13;99273.41;5072322;28;20040;-74
2021/05/16 02:45:15;;;;;;;15.40;12.88;;;;;;;13.00;92.36;99276.31;5072127;28;20037;-72
2021/05/16 02:47:44;;;;;;;16.13;12.60;;;;;;;13.21;91.10;99262.94;5075542;28;20098;-72
2021/05/16 02:50:12;;;;;;;16.27;12.23;;;;;;;13.15;90.55;99257.13;5075391;28;20049;-72
2021/05/16 02:52:40;;;;;;;15.73;12.07;;;;;;;13.13;91.05;99258.25;5075659;28;20079;-72
2021/05/16 02:55:09;;;;;;;14.85;12.02;;;;;;;13.06;90.93;99255.25;5075608;28;20611;-73
2021/05/16 02:57:37;;;;;;;14.95;12.40;;;;;;;12.77;91.86;99246.19;5075867;28;20064;-73
2021/05/16 03:00:07;;;;;;;15.35;12.10;;;;;;;12.90;92.02;99273.59;5075679;28;20044;-75
2021/05/16 03:02:35;;;;;;;17.25;12.50;;;;;;;12.95;92.13;99271.38;5075554;28;20033;-74
2021/05/16 03:05:04;;;;;;;16.02;13.07;;;;;;;12.97;91.98;99280.13;5075374;28;20123;-73
2021/05/16 03:07:32;;;;;;;14.73;11.80;;;;;;;12.75;92.21;99240.13;5075293;28;20459;-74
2021/05/16 03:10:00;;;;;;;14.00;11.82;;;;;;;13.08;91.43;99258.63;5075573;28;20040;-74
2021/05/16 03:12:29;;;;;;;15.48;11.93;;;;;;;13.25;90.59;99267.06;5075251;28;20094;-74
2021/05/16 03:14:56;;;;;;;14.98;11.30;;;;;;;13.15;90.69;99270.50;5075397;28;20040;-74
2021/05/16 03:17:24;;;;;;;14.75;11.38;;;;;;;13.06;90.96;99260.59;5075321;28;20452;-74
2021/05/16 03:19:52;;;;;;;16.05;12.40;;;;;;;13.16;90.53;99269.53;5075096;28;20044;-75
2021/05/16 03:22:21;;;;;;;15.80;12.02;;;;;;;13.23;90.21;99269.03;5075122;28;20040;-75
2021/05/16 03:24:48;;;;;;;15.10;11.90;;;;;;;13.29;89.95;99268.50;5075260;28;20513;-75
2021/05/16 03:27:16;;;;;;;15.45;11.98;;;;;;;13.23;89.91;99259.19;5074830;28;20036;-75
2021/05/16 03:29:44;;;;;;;15.80;11.98;;;;;;;13.31;89.89;99262.00;5075232;28;20051;-77
2021/05/16 03:32:12;;;;;;;16.33;11.82;;;;;;;13.07;90.31;99243.56;5074671;28;20040;-77
2021/05/16 03:34:40;;;;;;;16.35;12.43;;;;;;;13.08;90.91;99255.09;5074928;28;20041;-74
2021/05/16 03:37:07;;;;;;;15.82;11.88;;;;;;;13.16;91.08;99261.50;5074924;28;20437;-76
2021/05/16 03:39:36;;;;;;;15.50;11.35;;;;;;;13.17;90.66;99255.16;5074666;28;20052;-73
2021/05/16 03:42:06;;;;;;;15.98;12.30;;;;;;;13.04;90.81;99242.97;5074941;28;20041;-76
2021/05/16 03:44:34;;;;;;;16.85;12.50;;;;;;;12.79;90.75;99193.38;5074711;28;20135;-75
2021/05/16 03:47:03;;;;;;;17.13;13.25;;;;;;;13.05;91.06;99255.38;5073868;28;20045;-75
2021/05/16 03:49:31;;;;;;;16.77;12.68;;;;;;;12.85;90.94;99212.44;5074710;28;20045;-74
2021/05/16 03:51:59;;;;;;;15.88;12.10;;;;;;;13.36;90.00;99264.31;5074685;28;20040;-75
2021/05/16 03:54:28;;;;;;;17.40;12.80;;;;;;;13.29;90.15;99257.78;5074288;28;20051;-73
2021/05/16 03:56:59;;;;;;;14.90;11.95;;;;;;;13.36;90.06;99256.28;5074450;28;20101;-73
2021/05/16 03:59:26;;;;;;;15.63;11.75;;;;;;;13.39;90.13;99258.69;5074421;28;20388;-74
2021/05/16 04:01:54;;;;;;;14.90;11.90;;;;;;;13.37;89.88;99255.28;5074450;28;20041;-73
2021/05/16 04:04:25;;;;;;;15.18;12.10;;;;;;;13.37;90.12;99266.84;5074138;28;20083;-73
2021/05/16 04:06:53;;;;;;;15.10;11.70;;;;;;;13.31;89.70;99245.94;5074446;28;20037;-73
2021/05/16 04:09:21;;;;;;;17.35;12.90;;;;;;;13.50;89.54;99276.47;5073902;28;20428;-73
2021/05/16 04:11:49;;;;;;;18.92;12.98;;;;;;;13.42;90.19;99271.81;5074331;28;20036;-73
2021/05/16 04:14:18;;;;;;;15.00;12.15;;;;;;;13.47;90.14;99280.28;5074039;28;20036;-73
2021/05/16 04:16:48;;;;;;;15.55;12.80;;;;;;;13.29;90.38;99247.06;5074308;28;20044;-73
2021/05/16 04:19:16;;;;;;;14.70;11.90;;;;;;;13.44;90.54;99277.88;5073892;28;20060;-74
2021/05/16 04:21:44;;;;;;;14.10;11.48;;;;;;;13.63;89.64;99277.97;5073979;28;20554;-73
2021/05/16 04:24:13;;;;;;;17.73;12.13;;;;;;;13.63;89.85;99272.59;5073732;28;20085;-74
2021/05/16 04:26:41;;;;;;;15.70;12.05;;;;;;;13.66;89.71;99282.19;5073843;28;20072;-74
2021/05/16 04:29:09;;;;;;;18.05;12.57;;;;;;;13.62;90.40;99286.16;5073961;28;20127;-74
2021/05/16 04:31:39;;;;;;;16.52;12.95;;;;;;;13.58;91.38;99290.91;5073923;28;20052;-74
2021/05/16 04:34:09;;;;;;;19.45;13.38;;;;;;;13.56;92.44;99298.25;5074828;28;20044;-73
2021/05/16 04:36:37;;;;;;;17.73;13.50;;;;;;;13.57;92.62;99305.28;5074177;28;20492;-74
2021/05/16 04:39:06;;;;;;;18.60;13.60;;;;;;;13.49;92.83;99306.94;5073754;28;20080;-73
2021/05/16 04:41:34;;;;;;;17.52;13.45;;;;;;;13.42;92.93;99306.66;5073386;28;20048;-73
2021/05/16 04:44:03;;;;;;;18.13;13.55;;;;;;;13.36;93.07;99297.28;5073709;28;20386;-74
2021/05/16 04:46:31;;;;;;;19.98;13.93;;;;;;;13.43;93.84;99319.06;5073135;28;20123;-75
2021/05/16 04:48:59;;;;;;;18.98;14.32;;;;;;;13.41;94.47;99311.16;5073697;28;20044;-74
2021/05/16 04:51:27;;;;;;;18.38;13.20;;;;;;;13.36;94.70;99307.16;5073352;28;20048;-73
2021/05/16 04:53:58;;;;;;;17.13;13.77;;;;;;;13.36;95.21;99307.16;5073684;28;20057;-73
2021/05/16 04:56:28;;;;;;;17.20;12.95;;;;;;;13.35;95.28;99321.53;5073229;28;20053;-73
2021/05/16 04:58:56;;;;;;;18.25;13.52;;;;;;;13.31;95.69;99320.94;5073585;28;20090;-73
2021/05/16 05:01:25;;;;;;;19.55;14.65;;;;;;;13.30;95.88;99308.53;5073170;28;20036;-73
2021/05/16 05:03:55;;;;;;;16.55;13.15;;;;;;;13.40;95.59;99319.28;5073138;28;20119;-74
2021/05/16 05:06:24;;;;;;;17.35;13.18;;;;;;;13.33;95.67;99304.75;5073396;28;20045;-74
2021/05/16 05:08:52;;;;;;;18.10;13.50;;;;;;;13.44;95.80;99316.22;5072964;28;20049;-73
2021/05/16 05:11:20;;;;;;;18.00;13.38;;;;;;;13.45;95.53;99320.59;5072910;28;20037;-74
2021/05/16 05:13:47;;;;;;;17.52;13.20;;;;;;;13.52;95.69;99320.94;5073228;28;20114;-73
2021/05/16 05:16:18;;;;;;;16.80;13.40;;;;;;;13.52;95.38;99315.56;5073024;28;20032;-79
2021/05/16 05:18:46;;;;;;;16.80;13.57;;;;;;;13.62;95.21;99323.66;5073237;28;20429;-70
2021/05/16 05:21:13;;;;;;;18.10;13.80;;;;;;;13.60;95.99;99326.44;5073332;28;20075;-70
2021/05/16 05:23:42;;;;;;;17.38;14.38;;;;;;;13.57;96.13;99323.19;5073109;28;20036;-75
2021/05/16 05:26:10;;;;;;;16.45;13.63;;;;;;;13.59;96.02;99314.03;5073420;28;20063;-77
2021/05/16 05:28:38;;;;;;;18.15;14.23;;;;;;;13.60;96.10;99330.97;5072603;28;20032;-72
2021/05/16 05:31:06;;;;;;;18.55;14.18;;;;;;;13.58;95.45;99317.69;5072733;28;20067;-72
2021/05/16 05:33:34;;;;;;;16.67;13.27;;;;;;;13.60;95.56;99326.44;5072736;28;20080;-72
2021/05/16 05:36:04;;;;;;;18.08;13.77;;;;;;;13.58;95.36;99315.03;5072997;28;20071;-71
2021/05/16 05:38:32;;;;;;;18.00;14.25;;;;;;;13.60;95.50;99310.38;5072623;28;20140;-71
2021/05/16 05:41:01;;;;;;;17.38;13.00;;;;;;;13.69;95.05;99320.28;5072932;28;20048;-72
2021/05/16 05:43:29;;;;;;;16.27;13.77;;;;;;;13.64;95.16;99319.84;5072442;28;20397;-73
2021/05/16 05:45:57;;;;;;;16.52;13.77;;;;;;;13.70;95.04;99331.84;5072934;28;20385;-74
2021/05/16 05:48:26;;;;;;;18.02;13.60;;;;;;;13.70;95.49;99338.09;5072319;28;20032;-73
2021/05/16 05:50:54;;;;;;;17.48;13.85;;;;;;;13.80;95.50;99347.97;5072809;28;20053;-74
2021/05/16 05:53:24;;;;;;;16.33;13.25;;;;;;;13.86;95.55;99350.13;5072302;28;20094;-74
2021/05/16 05:55:52;;;;;;;18.83;13.63;;;;;;;13.93;95.44;99344.09;5072519;28;20048;-73
2021/05/16 05:58:21;;;;;;;20.05;14.23;;;;;;;13.94;95.80;99342.25;5072170;28;20070;-81
2021/05/16 06:00:48;;;;;;;16.02;13.48;;;;;;;13.98;95.11;99359.75;5071493;28;20436;-75
2021/05/16 06:03:17;;;;;;;15.00;12.30;;;;;;;13.96;94.04;99351.00;5072521;28;20048;-73
2021/05/16 06:05:45;;;;;;;17.83;13.00;;;;;;;13.85;93.96;99335.03;5071061;28;20063;-74
2021/05/16 06:08:13;;;;;;;15.23;12.10;;;;;;;13.94;93.57;99351.16;5072820;28;20057;-72
2021/05/16 06:10:43;;;;;;;17.42;13.13;;;;;;;14.03;93.18;99354.84;5072179;28;20076;-75
2021/05/16 06:13:10;;;;;;;14.20;12.00;;;;;;;14.01;93.20;99356.81;5072497;28;20110;-77
2021/05/16 06:15:40;;;;;;;14.50;12.02;;;;;;;13.97;92.66;99350.88;5072383;28;20047;-78
2021/05/16 06:18:09;;;;;;;15.38;12.02;;;;;;;14.02;93.53;99358.53;5071532;28;20055;-78
2021/05/16 06:20:37;;;;;;;16.73;12.48;;;;;;;14.08;93.70;99360.63;5072359;28;20051;-74
2021/05/16 06:23:06;;;;;;;15.05;12.43;;;;;;;14.11;93.29;99351.50;5076143;28;20037;-74
2021/05/16 06:25:34;;;;;;;15.10;12.57;;;;;;;14.09;93.72;99359.69;5075820;28;20044;-74
2021/05/16 06:28:01;;;;;;;18.17;12.73;;;;;;;14.05;94.08;99347.50;5076431;28;20090;-76
2021/05/16 06:30:30;;;;;;;15.85;11.65;;;;;;;14.19;92.84;99365.09;5075496;28;20102;-78
2021/05/16 06:32:59;;;;;;;15.48;11.88;;;;;;;14.17;92.75;99373.22;5075631;28;20036;-73
2021/05/16 06:35:29;;;;;;;16.55;12.98;;;;;;;14.19;92.94;99365.94;5076192;28;20079;-71
2021/05/16 06:37:57;;;;;;;17.25;12.63;;;;;;;14.20;92.75;99369.44;5075413;28;20550;-73
2021/05/16 06:40:25;;;;;;;15.35;12.77;;;;;;;14.25;92.89;99365.34;5076359;28;20094;-77
2021/05/16 06:42:53;;;;;;;15.68;12.07;;;;;;;14.29;92.59;99366.78;5076008;28;20033;-77
2021/05/16 06:45:21;;;;;;;15.38;12.20;;;;;;;14.33;91.96;99364.69;5075689;28;20040;-76
2021/05/16 06:47:49;;;;;;;14.80;11.55;;;;;;;14.40;91.41;99360.47;5075313;28;20044;-76
2021/05/16 06:50:19;;;;;;;14.98;12.02;;;;;;;14.42;92.27;99361.16;5076819;28;20055;-77
2021/05/16 06:52:47;;;;;;;17.40;12.23;;;;;;;14.47;91.50;99358.94;5076534;28;20056;-73
2021/05/16 06:55:15;;;;;;;16.45;12.40;;;;;;;14.52;91.23;99361.22;5055627;28;20051;-79
2021/05/16 06:57:43;;;;;;;16.15;12.82;;;;;;;14.51;91.61;99359.53;5055558;28;20444;-72
2021/05/16 07:00:12;;;;;;;16.02;12.85;;;;;;;14.52;91.32;99359.38;5055961;28;20068;-75
2021/05/16 07:02:42;;;;;;;15.52;12.80;;;;;;;14.45;90.80;99360.91;5055465;28;20455;-73
2021/05/16 07:05:11;;;;;;;16.95;13.40;;;;;;;14.50;90.19;99353.31;5055655;28;20047;-73
2021/05/16 07:07:40;;;;;;;18.10;14.00;;;;;;;14.55;90.08;99353.72;5055072;28;20041;-72
2021/05/16 07:10:12;;;;;;;;;;;;;;;14.56;90.16;99357.25;5055980;28;20470;-73
2021/05/16 07:12:40;;;;;;;19.88;13.40;;;;;;;14.60;90.44;99351.50;5055079;28;20284;-72
2021/05/16 07:15:12;;;;;;;17.17;13.98;;;;;;;14.46;90.21;99330.41;5055320;28;20053;-74
2021/05/16 07:17:40;;;;;;;16.77;13.57;;;;;;;14.67;89.02;99358.97;5053628;28;20057;-74
2021/05/16 07:20:09;;;;;;;17.08;12.93;;;;;;;14.58;89.68;99355.31;5055317;28;20546;-82
2021/05/16 07:22:37;;;;;;;16.25;13.48;;;;;;;14.56;90.51;99355.41;5055817;28;20045;-76
2021/05/16 07:25:08;;;;;;;16.58;13.00;;;;;;;14.66;89.27;99359.94;5074532;28;20037;-77
2021/05/16 07:27:38;;;;;;;14.55;12.43;;;;;;;14.55;89.24;99356.41;5071971;28;20058;-76
2021/05/16 07:30:07;;;;;;;18.35;13.15;;;;;;;14.51;89.81;99359.53;5074455;28;20037;-76
2021/05/16 07:32:35;;;;;;;14.95;12.10;;;;;;;14.55;90.18;99356.41;5074349;28;20044;-75
2021/05/16 07:35:04;;;;;;;12.35;10.70;;;;;;;14.57;89.45;99354.47;5074224;28;20058;-76
2021/05/16 07:37:32;;;;;;;13.70;10.00;;;;;;;14.55;88.28;99344.84;5073285;28;20102;-75
2021/05/16 07:39:59;;;;;;;13.10;9.10;;;;;;;14.51;87.66;99343.44;5071338;28;20428;-75
2021/05/16 07:42:36;;;;;;;10.93;9.13;;;;;;;14.37;88.28;99314.25;5072543;28;20102;-73
2021/05/16 07:45:11;;;;;;;12.30;9.43;;;;;;;14.58;88.26;99349.94;5062844;28;20044;-72
2021/05/16 07:47:40;;;;;;;10.43;8.73;;;;;;;14.68;87.74;99349.94;5072845;28;20044;-71
2021/05/16 07:50:10;;;;;;;11.30;8.25;;;;;;;14.70;87.67;99348.81;5074162;28;20040;-72
2021/05/16 07:52:38;;;;;;;9.73;7.68;;;;;;;14.88;87.70;99343.59;5074219;28;20040;-70
2021/05/16 07:55:10;;;;;;;12.27;8.73;;;;;;;14.85;88.71;99344.69;5073791;28;20095;-71
2021/05/16 07:57:41;;;;;;;10.43;7.90;;;;;;;14.98;87.27;99351.66;5076096;28;20098;-72
2021/05/16 08:00:11;;;;;;;8.73;7.47;;;;;;;14.94;86.85;99340.31;5075341;28;20040;-71
2021/05/16 08:02:41;;;;;;;11.05;7.97;;;;;;;15.08;86.92;99355.19;5074147;28;20040;-70
2021/05/16 08:05:11;;;;;;;9.20;7.65;;;;;;;15.21;87.05;99353.03;5073594;28;20044;-71
2021/05/16 08:07:40;;;;;;;10.18;7.22;;;;;;;15.21;86.71;99346.81;5073737;28;20043;-72
2021/05/16 08:10:09;;;;;;;9.57;6.75;;;;;;;15.24;85.63;99341.97;5073782;28;20047;-71
2021/05/16 08:12:37;;;;;;;7.78;6.38;;;;;;;15.17;85.72;99351.63;5073722;28;20072;-70
2021/05/16 08:15:09;;;;;;;10.07;7.50;;;;;;;15.05;87.10;99353.59;5073110;28;20045;-71
2021/05/16 08:17:37;;;;;;;8.80;6.65;;;;;;;15.16;86.27;99339.19;5072300;28;20504;-70
2021/05/16 08:20:07;;;;;;;7.82;6.20;;;;;;;15.33;85.67;99357.25;5073531;28;20051;-71
2021/05/16 08:22:39;;;;;;;10.85;6.38;;;;;;;15.51;85.55;99353.81;5073161;28;20055;-73
2021/05/16 08:25:10;;;;;;;8.23;6.40;;;;;;;15.50;85.84;99363.72;5073485;28;20560;-73
2021/05/16 08:27:39;;;;;;;7.70;6.15;;;;;;;15.64;85.26;99354.41;5073444;28;20044;-73
2021/05/16 08:30:10;;;;;;;7.97;5.22;;;;;;;15.84;82.80;99356.03;5073419;28;20044;-67
2021/05/16 08:32:38;;;;;;;8.93;5.07;;;;;;;15.78;82.88;99355.75;5061756;28;20052;-67
2021/05/16 08:35:09;;;;;;;8.48;4.85;;;;;;;15.79;83.19;99347.53;5072703;28;20513;-69
2021/05/16 08:37:38;;;;;;;5.93;4.53;;;;;;;15.78;83.20;99345.84;5072775;28;20052;-68
2021/05/16 08:40:08;;;;;;;6.05;4.45;;;;;;;15.69;84.09;99346.72;5073341;28;20052;-71
2021/05/16 08:42:37;;;;;;;9.13;4.57;;;;;;;15.80;83.38;99343.00;5073027;28;20048;-71
2021/05/16 08:45:10;;;;;;;7.00;4.38;;;;;;;15.98;83.52;99341.22;5071606;28;20094;-70
2021/05/16 08:47:40;;;;;;;6.82;4.05;;;;;;;16.47;82.45;99347.19;5072879;28;20033;-70
2021/05/16 08:50:10;;;;;;;7.00;4.10;;;;;;;16.58;79.71;99346.97;5072576;28;20052;-69
2021/05/16 08:52:38;;;;;;;7.47;3.63;;;;;;;16.68;78.58;99346.91;5071471;28;20076;-68
2021/05/16 08:55:08;;;;;;;6.18;3.78;;;;;;;16.39;79.15;99329.09;5072780;28;20086;-67
2021/05/16 08:57:39;;;;;;;5.63;3.40;;;;;;;16.61;79.49;99298.22;5072691;28;20041;-68
2021/05/16 09:00:17;;;;;;;5.32;3.40;;;;;;;16.54;78.51;99341.06;5072669;28;20051;-68
2021/05/16 09:03:06;;;;;;;6.00;3.35;;;;;;;16.78;76.97;99318.06;5072392;28;20041;-68
2021/05/16 09:05:38;;;;;;;5.07;3.40;;;;;;;17.32;75.68;99335.88;5072266;28;20178;-68
2021/05/16 09:08:12;;;;;;;4.35;3.22;;;;;;;17.26;76.16;99324.88;5072377;28;20052;-69
2021/05/16 09:10:41;;;;;;;6.80;3.50;;;;;;;17.42;76.10;99338.47;5072442;28;20036;-70
2021/05/16 09:13:18;;;;;;;5.40;3.33;;;;;;;17.72;74.60;99342.56;5072474;28;20045;-71
2021/05/16 09:16:03;;;;;;;4.72;3.10;;;;;;;17.92;73.88;99345.88;5053809;28;20102;-68
2021/05/16 09:18:45;;;;;;;5.38;3.28;;;;;;;18.18;72.87;99352.06;5052388;28;20051;-67
2021/05/16 09:21:32;;;;;;;4.28;3.00;;;;;;;18.29;72.49;99349.06;5052534;28;20072;-66
2021/05/16 09:24:10;;;;;;;5.25;3.30;;;;;;;18.43;71.44;99344.03;5068231;28;20053;-67
2021/05/16 09:26:51;;;;;;;4.63;3.28;;;;;;;18.29;70.89;99346.38;5056987;28;20036;-68
2021/05/16 09:29:21;;;;;;;6.93;3.67;;;;;;;18.13;72.16;99340.91;5072236;28;20039;-69
2021/05/16 09:31:51;;;;;;;5.47;3.72;;;;;;;17.64;72.75;99337.94;5071916;28;20037;-67
2021/05/16 09:34:19;;;;;;;4.32;3.20;;;;;;;17.73;73.69;99337.00;5072385;28;20052;-69
2021/05/16 09:36:51;;;;;;;6.35;3.10;;;;;;;17.52;73.47;99339.22;5072048;28;20036;-70
2021/05/16 09:39:22;;;;;;;5.72;3.00;;;;;;;17.06;73.70;99343.06;5072049;28;20052;-68
2021/05/16 09:42:01;;;;;;;5.50;3.33;;;;;;;16.29;77.49;99355.22;5072196;28;20049;-67
2021/05/16 09:44:35;;;;;;;4.82;3.25;;;;;;;16.10;79.38;99352.63;5071555;28;20123;-68
2021/05/16 09:47:11;;;;;;;7.07;3.45;;;;;;;15.97;80.72;99359.22;5072324;28;20045;-67
2021/05/16 09:49:41;;;;;;;5.22;2.97;;;;;;;15.89;80.65;99356.41;5072242;28;20047;-71
2021/05/16 09:52:11;;;;;;;4.97;2.95;;;;;;;15.60;79.99;99363.69;5072218;28;20516;-70
2021/05/16 09:54:59;;;;;;;6.70;2.38;;;;;;;15.14;81.41;99360.81;5072074;28;20419;-68
2021/05/16 09:57:28;;;;;;;5.00;2.97;;;;;;;14.93;82.60;99378.91;5076407;28;20041;-68
2021/05/16 09:59:56;;;;;;;4.13;2.50;;;;;;;14.84;79.99;99375.22;5076211;28;20045;-68
2021/05/16 10:02:29;;;;;;;3.88;2.40;;;;;;;14.85;78.47;99379.59;5075950;28;20408;-68
2021/05/16 10:05:00;;;;;;;4.05;2.25;;;;;;;15.01;77.19;99383.56;5075639;28;20650;-69
2021/05/16 10:07:32;;;;;;;3.97;2.53;;;;;;;14.74;78.60;99385.09;5075975;28;20052;-69
2021/05/16 10:10:01;;;;;;;5.32;2.70;;;;;;;14.99;78.06;99388.25;5076171;28;20501;-70
2021/05/16 10:12:29;;;;;;;3.15;2.30;;;;;;;14.89;78.57;99386.41;5075792;28;20064;-67
2021/05/16 10:15:06;;;;;;;3.55;2.33;;;;;;;14.89;79.48;99394.47;5074812;28;20047;-72
2021/05/16 10:17:41;;;;;;;3.85;2.47;;;;;;;15.27;75.88;99398.13;5073755;28;20047;-70
2021/05/16 10:20:12;;;;;;;6.60;2.60;;;;;;;15.80;77.46;99394.09;5069520;28;20048;-67
2021/05/16 10:22:52;;;;;;;4.32;2.45;;;;;;;15.55;74.96;99360.63;5075199;28;20098;-73
2021/05/16 10:25:39;;;;;;;3.55;2.10;;;;;;;16.08;73.62;99387.75;5055408;28;20435;-67
2021/05/16 10:28:08;;;;;;;3.60;1.85;;;;;;;16.30;69.19;99384.66;5055994;28;20073;-68
2021/05/16 10:30:37;;;;;;;6.00;2.03;;;;;;;16.47;70.34;99379.50;5074996;28;20512;-66
2021/05/16 10:33:06;;;;;;;3.17;1.85;;;;;;;16.64;68.77;99377.84;5075144;28;20378;-69
2021/05/16 10:35:48;;;;;;;2.50;1.40;;;;;;;16.54;65.74;99376.03;5075194;28;20044;-71
2021/05/16 10:38:33;;;;;;;3.95;1.77;;;;;;;16.70;66.73;99379.97;5074075;28;20052;-68
2021/05/16 10:41:15;;;;;;;2.45;1.55;;;;;;;16.80;67.12;99386.97;5075771;28;20037;-74
2021/05/16 10:43:46;;;;;;;2.03;0.90;;;;;;;16.65;62.71;99377.69;5075293;28;20493;-74
2021/05/16 10:46:42;;;;;;;1.13;0.90;;;;;;;16.89;64.17;99385.19;5075058;28;20049;-73
2021/05/16 10:49:24;;;;;;;1.83;1.00;;;;;;;17.00;62.72;99376.88;5091314;28;20656;-72
2021/05/16 10:51:55;;;;;;;3.60;1.23;;;;;;;17.05;62.43;99373.72;5075317;28;20056;-68
2021/05/16 10:54:28;;;;;;;2.55;1.23;;;;;;;17.52;64.09;99376.97;5062691;28;20060;-68
2021/05/16 10:57:14;;;;;;;2.67;0.90;;;;;;;17.44;59.79;99371.50;5054779;28;20053;-71
2021/05/16 10:59:43;;;;;;;1.48;1.02;;;;;;;17.32;59.71;99380.84;5055292;28;20453;-71
2021/05/16 11:02:12;;;;;;;1.20;0.95;;;;;;;17.39;62.67;99373.84;5055039;28;20045;-71
2021/05/16 11:04:47;;;;;;;2.05;1.20;;;;;;;17.73;61.71;99380.16;5054807;28;20075;-71
2021/05/16 11:07:33;;;;;;;1.60;0.98;;;;;;;17.56;59.00;99375.63;5054121;28;20053;-71
2021/05/16 11:10:28;;;;;;;3.05;0.80;;;;;;;17.79;59.22;99375.16;5053993;28;20139;-69
2021/05/16 11:13:07;;;;;;;2.50;1.13;;;;;;;17.84;59.54;99376.34;5054878;28;20064;-69
2021/05/16 11:15:36;;;;;;;2.53;1.25;;;;;;;17.25;62.31;99371.69;5071616;28;20127;-71
2021/05/16 11:18:07;;;;;;;3.28;1.42;;;;;;;17.15;65.61;99378.00;5067774;28;20054;-73
2021/05/16 11:20:36;;;;;;;2.08;0.93;;;;;;;17.27;61.69;99375.91;5064104;28;20470;-72
2021/05/16 11:23:04;;;;;;;0.82;0.70;;;;;;;17.21;59.67;99375.72;5055887;28;20040;-70
2021/05/16 11:25:33;;;;;;;1.17;0.80;;;;;;;17.56;57.77;99367.53;5056526;28;20040;-69
2021/05/16 11:28:10;;;;;;;1.40;0.90;;;;;;;17.93;57.07;99370.00;5055152;28;20053;-70
2021/05/16 11:30:43;;;;;;;1.63;0.70;;;;;;;17.96;54.40;99364.28;5054579;28;20119;-68
2021/05/16 11:33:14;;;;;;;2.38;0.60;;;;;;;17.93;55.96;99361.06;5054323;28;20055;-70
2021/05/16 11:35:47;;;;;;;2.13;0.77;;;;;;;17.97;56.91;99359.75;5054032;28;20068;-69
2021/05/16 11:38:25;;;;;;;0.95;0.60;;;;;;;17.99;57.29;99357.72;5054359;28;20053;-69